Time;durP1;ratioP1;P1;durP2;ratioP2;P2;SDS_P1;SDS_P2;PMS_P1;PMS_P2;Temp;Humidity;BMP_temperature;BMP_pressure;BME280_temperature;BME280_humidity;BME280_pressure;Samples;Min_cycle;Max_cycle;Signal;HPM_P1;HPM_P2
2023/09/15 00:00:40;;;;;;;;;;;23.60;99.90;;;;;;5091916;28;19916;-71
2023/09/15 00:03:06;;;;;;;;;;;23.60;99.90;;;;;;5092364;28;20332;-70
2023/09/15 00:05:33;;;;;;;;;;;23.70;99.90;;;;;;5092303;28;19912;-70
2023/09/15 00:08:01;;;;;;;;;;;23.70;99.90;;;;;;5091817;28;19908;-71
2023/09/15 00:10:27;;;;;;;;;;;23.70;99.90;;;;;;5091873;28;19909;-70
2023/09/15 00:12:53;;;;;;;;;;;23.80;99.90;;;;;;5091867;28;19908;-70
2023/09/15 00:15:19;;;;;;;;;;;23.80;99.90;;;;;;5092106;28;20002;-70
2023/09/15 00:17:45;;;;;;;;;;;23.80;99.90;;;;;;5091670;28;19945;-70
2023/09/15 00:20:14;;;;;;;;;;;23.80;99.90;;;;;;5091716;28;19914;-71
2023/09/15 00:22:41;;;;;;;;;;;23.80;99.90;;;;;;5073452;28;19954;-71
2023/09/15 00:25:08;;;;;;;;;;;23.70;99.90;;;;;;5091733;28;20317;-70
2023/09/15 00:27:33;;;;;;;;;;;23.80;99.90;;;;;;5091817;28;20271;-71
2023/09/15 00:29:59;;;;;;;;;;;23.80;99.90;;;;;;5091356;28;20002;-71
2023/09/15 00:32:25;;;;;;;;;;;23.90;99.90;;;;;;5091116;28;19908;-70
2023/09/15 00:34:51;;;;;;;;;;;24.00;99.90;;;;;;5091852;28;19915;-72
2023/09/15 00:37:17;;;;;;;;;;;23.90;99.90;;;;;;5091425;28;19908;-71
2023/09/15 00:39:43;;;;;;;;;;;23.90;99.90;;;;;;5091799;28;20274;-71
2023/09/15 00:42:08;;;;;;;;;;;23.90;99.90;;;;;;5091362;28;19930;-70
2023/09/15 00:44:34;;;;;;;;;;;23.80;99.90;;;;;;5091677;28;19943;-70
2023/09/15 00:47:00;;;;;;;;;;;23.90;99.90;;;;;;5091121;28;19908;-70
2023/09/15 00:49:26;;;;;;;;;;;23.90;99.90;;;;;;5072979;28;20003;-70
2023/09/15 00:51:52;;;;;;;;;;;23.90;99.90;;;;;;5091372;28;20373;-70
2023/09/15 00:54:17;;;;;;;;;;;23.80;99.90;;;;;;5091611;28;19915;-68
2023/09/15 00:56:44;;;;;;;;;;;23.80;99.90;;;;;;5072946;28;19912;-70
2023/09/15 00:59:10;;;;;;;;;;;23.80;99.90;;;;;;5091510;28;19908;-70
2023/09/15 01:01:39;;;;;;;;;;;23.80;99.90;;;;;;5072625;28;19965;-70
2023/09/15 01:04:05;;;;;;;;;;;23.90;99.90;;;;;;5091040;28;19915;-70
2023/09/15 01:06:32;;;;;;;;;;;23.90;99.90;;;;;;5090877;28;20353;-70
2023/09/15 01:08:58;;;;;;;;;;;23.90;99.90;;;;;;5072731;28;19912;-69
2023/09/15 01:11:25;;;;;;;;;;;23.90;99.90;;;;;;5091023;28;19967;-70
2023/09/15 01:13:51;;;;;;;;;;;23.90;99.90;;;;;;5072764;28;19919;-70
2023/09/15 01:16:26;;;;;;;;;;;23.90;99.90;;;;;;5072422;28;19909;-70
2023/09/15 01:18:58;;;;;;;;;;;23.90;99.90;;;;;;5092829;28;19912;-70
2023/09/15 01:21:26;;;;;;;;;;;23.90;99.90;;;;;;5094731;28;19963;-71
2023/09/15 01:24:11;;;;;;;;;;;23.80;99.90;;;;;;5077148;28;19912;-71
2023/09/15 01:26:37;;;;;;;;;;;23.80;99.90;;;;;;5094996;28;19992;-70
2023/09/15 01:29:08;;;;;;;;;;;23.80;99.90;;;;;;5095278;28;20271;-70
2023/09/15 01:31:35;;;;;;;;;;;23.70;99.90;;;;;;5076920;28;20268;-70
2023/09/15 01:34:01;;;;;;;;;;;23.70;99.90;;;;;;5094717;28;19908;-70
2023/09/15 01:36:27;;;;;;;;;;;23.70;99.90;;;;;;5095017;28;20337;-70
2023/09/15 01:38:52;;;;;;;;;;;23.70;99.90;;;;;;5093180;28;20012;-70
2023/09/15 01:41:19;;;;;;;;;;;23.70;99.90;;;;;;5094940;28;20007;-71
2023/09/15 01:43:45;;;;;;;;;;;23.70;99.90;;;;;;5094565;28;19954;-71
2023/09/15 01:46:11;;;;;;;;;;;23.90;99.90;;;;;;5094475;28;19959;-71
2023/09/15 01:48:37;;;;;;;;;;;23.80;99.90;;;;;;5094884;28;19908;-70
2023/09/15 01:51:04;;;;;;;;;;;23.80;99.90;;;;;;5094422;28;20232;-71
2023/09/15 01:53:30;;;;;;;;;;;23.80;99.90;;;;;;5094536;28;20003;-72
2023/09/15 01:55:56;;;;;;;;;;;23.80;99.90;;;;;;5076009;28;20346;-70
2023/09/15 01:58:22;;;;;;;;;;;23.80;99.90;;;;;;5094240;28;19954;-71
2023/09/15 02:00:48;;;;;;;;;;;23.80;99.90;;;;;;5094022;28;19984;-70
2023/09/15 02:03:14;;;;;;;;;;;23.70;99.90;;;;;;5094395;28;19908;-70
2023/09/15 02:05:40;;;;;;;;;;;23.60;99.90;;;;;;5094068;28;19919;-70
2023/09/15 02:08:06;;;;;;;;;;;23.60;99.90;;;;;;5094144;28;19908;-72
2023/09/15 02:10:32;;;;;;;;;;;23.60;99.90;;;;;;5093987;28;19920;-72
2023/09/15 02:12:58;;;;;;;;;;;23.60;99.90;;;;;;5093951;28;19973;-70
2023/09/15 02:15:24;;;;;;;;;;;23.50;99.90;;;;;;5094369;28;20279;-70
2023/09/15 02:17:51;;;;;;;;;;;23.50;99.90;;;;;;5093726;28;19974;-70
2023/09/15 02:20:18;;;;;;;;;;;23.50;99.90;;;;;;5093864;28;19973;-70
2023/09/15 02:22:44;;;;;;;;;;;23.50;99.90;;;;;;5093782;28;19908;-70
2023/09/15 02:25:10;;;;;;;;;;;23.40;99.90;;;;;;5093852;28;20314;-70
2023/09/15 02:27:37;;;;;;;;;;;23.40;99.90;;;;;;5093756;28;20007;-71
2023/09/15 02:30:06;;;;;;;;;;;23.40;99.90;;;;;;5093362;28;19974;-71
2023/09/15 02:32:32;;;;;;;;;;;23.30;99.90;;;;;;5093437;28;20011;-70
2023/09/15 02:34:57;;;;;;;;;;;23.30;99.90;;;;;;5093742;28;20303;-71
2023/09/15 02:37:23;;;;;;;;;;;23.40;99.90;;;;;;5075112;28;20275;-70
2023/09/15 02:39:49;;;;;;;;;;;23.40;99.90;;;;;;5093213;28;20322;-70
2023/09/15 02:42:15;;;;;;;;;;;23.30;99.90;;;;;;5093461;28;19916;-70
2023/09/15 02:44:42;;;;;;;;;;;23.30;99.90;;;;;;5074632;28;19999;-70
2023/09/15 02:47:07;;;;;;;;;;;23.20;99.90;;;;;;5092792;28;19908;-69
2023/09/15 02:49:33;;;;;;;;;;;23.20;99.90;;;;;;5093164;28;19961;-70
2023/09/15 02:52:01;;;;;;;;;;;23.20;99.90;;;;;;5092773;28;20253;-71
2023/09/15 02:54:27;;;;;;;;;;;23.20;99.90;;;;;;5093306;28;19908;-70
2023/09/15 02:56:53;;;;;;;;;;;23.20;99.90;;;;;;5093589;28;19916;-70
2023/09/15 02:59:19;;;;;;;;;;;23.20;99.90;;;;;;5093987;28;19969;-71
2023/09/15 03:01:45;;;;;;;;;;;23.20;99.90;;;;;;5093270;28;20360;-70
2023/09/15 03:04:11;;;;;;;;;;;23.20;99.90;;;;;;5093882;28;19908;-72
2023/09/15 03:06:37;;;;;;;;;;;23.20;99.90;;;;;;5093526;28;19908;-71
2023/09/15 03:09:05;;;;;;;;;;;23.30;99.90;;;;;;5093852;28;20045;-71
2023/09/15 03:11:31;;;;;;;;;;;23.20;99.90;;;;;;5093820;28;20358;-70
2023/09/15 03:13:57;;;;;;;;;;;23.20;99.90;;;;;;5093749;28;20002;-71
2023/09/15 03:16:25;;;;;;;;;;;23.20;99.90;;;;;;5093457;28;19999;-70
2023/09/15 03:18:51;;;;;;;;;;;23.20;99.90;;;;;;5093438;28;19908;-70
2023/09/15 03:21:17;;;;;;;;;;;23.30;99.90;;;;;;5093581;28;19916;-71
2023/09/15 03:23:42;;;;;;;;;;;23.30;99.90;;;;;;5093561;28;20007;-70
2023/09/15 03:26:08;;;;;;;;;;;23.30;99.90;;;;;;5094071;28;19908;-70
2023/09/15 03:28:35;;;;;;;;;;;23.30;99.90;;;;;;5075188;28;19915;-71
2023/09/15 03:31:03;;;;;;;;;;;23.30;99.90;;;;;;5093342;28;19928;-70
2023/09/15 03:33:30;;;;;;;;;;;23.30;99.90;;;;;;5093712;28;20415;-70
2023/09/15 03:35:56;;;;;;;;;;;23.30;99.90;;;;;;5093378;28;19973;-70
2023/09/15 03:38:22;;;;;;;;;;;23.30;99.90;;;;;;5093571;28;19965;-70
2023/09/15 03:40:48;;;;;;;;;;;23.30;99.90;;;;;;5092590;28;19920;-70
2023/09/15 03:43:14;;;;;;;;;;;23.30;99.90;;;;;;5092531;28;20267;-70
2023/09/15 03:45:42;;;;;;;;;;;23.30;99.90;;;;;;5092412;28;19955;-71
2023/09/15 03:48:08;;;;;;;;;;;23.30;99.90;;;;;;5092971;28;19961;-70
2023/09/15 03:50:34;;;;;;;;;;;23.30;99.90;;;;;;5093366;28;19912;-70
2023/09/15 03:52:59;;;;;;;;;;;23.30;99.90;;;;;;5074902;28;20332;-71
2023/09/15 03:55:26;;;;;;;;;;;23.30;99.90;;;;;;5093315;28;19934;-70
2023/09/15 03:57:52;;;;;;;;;;;23.30;99.90;;;;;;5093097;28;19908;-69
2023/09/15 04:00:19;;;;;;;;;;;23.30;99.90;;;;;;5074720;28;20256;-70
2023/09/15 04:02:45;;;;;;;;;;;23.30;99.90;;;;;;5092640;28;19908;-70
2023/09/15 04:05:10;;;;;;;;;;;23.20;99.90;;;;;;5092917;28;19908;-70
2023/09/15 04:07:37;;;;;;;;;;;23.20;99.90;;;;;;5074631;28;19919;-70
2023/09/15 04:10:05;;;;;;;;;;;23.20;99.90;;;;;;5092749;28;19955;-70
2023/09/15 04:12:32;;;;;;;;;;;23.10;99.90;;;;;;5092783;28;19916;-70
2023/09/15 04:14:58;;;;;;;;;;;23.10;99.90;;;;;;5093128;28;19912;-70
2023/09/15 04:17:24;;;;;;;;;;;23.10;99.90;;;;;;5092823;28;20439;-70
2023/09/15 04:19:50;;;;;;;;;;;23.10;99.90;;;;;;5093358;28;19947;-72
2023/09/15 04:22:16;;;;;;;;;;;23.10;99.90;;;;;;5093216;28;19962;-71
2023/09/15 04:24:42;;;;;;;;;;;23.20;99.90;;;;;;5075060;28;19908;-70
2023/09/15 04:27:08;;;;;;;;;;;23.20;99.90;;;;;;5093228;28;19962;-71
2023/09/15 04:29:38;;;;;;;;;;;23.20;99.90;;;;;;5093698;28;19912;-71
2023/09/15 04:32:04;;;;;;;;;;;23.10;99.90;;;;;;5092940;28;19908;-71
2023/09/15 04:34:29;;;;;;;;;;;23.10;99.90;;;;;;5093491;28;19908;-72
2023/09/15 04:36:55;;;;;;;;;;;23.10;99.90;;;;;;5093140;28;19959;-72
2023/09/15 04:39:21;;;;;;;;;;;23.10;99.90;;;;;;5074797;28;20258;-71
2023/09/15 04:41:47;;;;;;;;;;;23.10;99.90;;;;;;5093267;28;19916;-72
2023/09/15 04:44:13;;;;;;;;;;;23.20;99.90;;;;;;5093318;28;19952;-71
2023/09/15 04:46:39;;;;;;;;;;;23.10;99.90;;;;;;5074613;28;20038;-71
2023/09/15 04:49:05;;;;;;;;;;;23.10;99.90;;;;;;5093027;28;19931;-71
2023/09/15 04:51:31;;;;;;;;;;;23.10;99.90;;;;;;5093281;28;20360;-73
2023/09/15 04:53:56;;;;;;;;;;;23.20;99.90;;;;;;5096293;28;19977;-71
2023/09/15 04:56:22;;;;;;;;;;;23.20;99.90;;;;;;5079007;28;19912;-71
2023/09/15 04:58:48;;;;;;;;;;;23.20;99.90;;;;;;5098002;28;19908;-71
2023/09/15 05:01:16;;;;;;;;;;;23.10;99.90;;;;;;5096484;28;20371;-71
2023/09/15 05:03:44;;;;;;;;;;;23.10;99.90;;;;;;5078597;28;19962;-71
2023/09/15 05:06:10;;;;;;;;;;;23.10;99.90;;;;;;5078625;28;19954;-71
2023/09/15 05:08:35;;;;;;;;;;;23.10;99.90;;;;;;5096989;28;19908;-71
2023/09/15 05:11:01;;;;;;;;;;;23.20;99.90;;;;;;5078432;28;19915;-71
2023/09/15 05:13:27;;;;;;;;;;;23.30;99.90;;;;;;5097095;28;19915;-72
2023/09/15 05:15:53;;;;;;;;;;;23.40;99.90;;;;;;5096364;28;19919;-71
2023/09/15 05:18:18;;;;;;;;;;;23.50;99.90;;;;;;5078396;28;20031;-71
2023/09/15 05:20:44;;;;;;;;;;;23.50;99.90;;;;;;5096863;28;19981;-71
2023/09/15 05:23:10;;;;;;;;;;;23.70;99.90;;;;;;5078693;28;19931;-71
2023/09/15 05:25:36;;;;;;;;;;;23.70;99.90;;;;;;5096691;28;20021;-72
2023/09/15 05:28:02;;;;;;;;;;;23.80;99.90;;;;;;5096989;28;20276;-70
2023/09/15 05:30:29;;;;;;;;;;;23.90;99.90;;;;;;5095698;28;19908;-70
2023/09/15 05:32:55;;;;;;;;;;;23.90;99.90;;;;;;5076811;28;20287;-71
2023/09/15 05:35:21;;;;;;;;;;;24.00;99.90;;;;;;5077420;28;19912;-72
2023/09/15 05:37:47;;;;;;;;;;;24.20;99.90;;;;;;5095485;28;19969;-70
2023/09/15 05:40:13;;;;;;;;;;;24.60;99.90;;;;;;5095245;28;19924;-70
2023/09/15 05:42:39;;;;;;;;;;;25.40;99.90;;;;;;5077163;28;19919;-72
2023/09/15 05:45:05;;;;;;;;;;;25.80;99.90;;;;;;5095310;28;19909;-71
2023/09/15 05:47:31;;;;;;;;;;;26.30;99.90;;;;;;5094995;28;19908;-71
2023/09/15 05:50:00;;;;;;;;;;;26.90;99.90;;;;;;5076637;28;19908;-70
2023/09/15 05:52:26;;;;;;;;;;;27.80;99.90;;;;;;5075764;28;19907;-73
2023/09/15 05:54:52;;;;;;;;;;;28.60;99.90;;;;;;5075701;28;19959;-71
2023/09/15 05:57:18;;;;;;;;;;;29.50;99.90;;;;;;5094578;28;19912;-73
2023/09/15 05:59:43;;;;;;;;;;;30.60;99.90;;;;;;5094404;28;20055;-72
2023/09/15 06:02:09;;;;;;;;;;;31.50;99.90;;;;;;5076042;28;19923;-72
2023/09/15 06:04:35;;;;;;;;;;;32.10;99.90;;;;;;5094596;28;19961;-72
2023/09/15 06:07:01;;;;;;;;;;;33.10;99.90;;;;;;5094501;28;19958;-72
2023/09/15 06:09:27;;;;;;;;;;;33.10;99.90;;;;;;5076915;28;19908;-70
2023/09/15 06:11:52;;;;;;;;;;;34.00;99.90;;;;;;5075926;28;19919;-71
2023/09/15 06:14:18;;;;;;;;;;;33.90;99.90;;;;;;5094074;28;19908;-73
2023/09/15 06:16:44;;;;;;;;;;;33.00;99.90;;;;;;5094615;28;19908;-72
2023/09/15 06:19:10;;;;;;;;;;;33.20;99.90;;;;;;5095540;28;19990;-71
2023/09/15 06:21:35;;;;;;;;;;;33.00;99.90;;;;;;5094653;28;19916;-71
2023/09/15 06:24:01;;;;;;;;;;;32.00;99.90;;;;;;5094670;28;19908;-71
2023/09/15 06:26:28;;;;;;;;;;;32.00;99.90;;;;;;5094572;28;20011;-71
2023/09/15 06:28:54;;;;;;;;;;;32.50;99.90;;;;;;5095059;28;19914;-71
2023/09/15 06:31:20;;;;;;;;;;;31.80;99.90;;;;;;5094367;28;20433;-70
2023/09/15 06:33:46;;;;;;;;;;;32.10;99.90;;;;;;5094816;28;19908;-70
2023/09/15 06:36:13;;;;;;;;;;;32.10;99.90;;;;;;5094588;28;19961;-71
2023/09/15 06:38:39;;;;;;;;;;;32.10;99.90;;;;;;5076446;28;19962;-71
2023/09/15 06:41:05;;;;;;;;;;;32.40;99.90;;;;;;5094315;28;19916;-71
2023/09/15 06:43:31;;;;;;;;;;;32.10;99.90;;;;;;5094482;28;19998;-72
2023/09/15 06:45:57;;;;;;;;;;;33.80;99.90;;;;;;5075850;28;19908;-72
2023/09/15 06:48:23;;;;;;;;;;;35.50;99.90;;;;;;5094048;28;20440;-72
2023/09/15 06:50:48;;;;;;;;;;;35.60;99.90;;;;;;5094399;28;19908;-71
2023/09/15 06:53:14;;;;;;;;;;;36.80;99.90;;;;;;5093838;28;20309;-71
2023/09/15 06:55:40;;;;;;;;;;;37.80;99.90;;;;;;5093928;28;19912;-72
2023/09/15 06:58:06;;;;;;;;;;;38.20;99.90;;;;;;5093903;28;20002;-72
2023/09/15 07:00:32;;;;;;;;;;;37.10;99.90;;;;;;5093711;28;19954;-72
2023/09/15 07:02:57;;;;;;;;;;;37.30;99.90;;;;;;5093572;28;19926;-71
2023/09/15 07:05:23;;;;;;;;;;;37.40;99.90;;;;;;5075191;28;19934;-72
2023/09/15 07:07:49;;;;;;;;;;;37.20;99.90;;;;;;5094035;28;19908;-72
2023/09/15 07:10:15;;;;;;;;;;;38.00;99.90;;;;;;5093555;28;19908;-71
2023/09/15 07:12:41;;;;;;;;;;;38.30;99.90;;;;;;5093635;28;20272;-72
2023/09/15 07:15:07;;;;;;;;;;;38.60;99.90;;;;;;5093775;28;20340;-71
2023/09/15 07:17:33;;;;;;;;;;;38.70;99.90;;;;;;5092458;28;20037;-72
2023/09/15 07:19:59;;;;;;;;;;;38.60;99.90;;;;;;5093701;28;19915;-71
2023/09/15 07:22:27;;;;;;;;;;;37.80;99.90;;;;;;5093416;28;19939;-71
2023/09/15 07:24:53;;;;;;;;;;;36.20;99.90;;;;;;5093851;28;19915;-72
2023/09/15 07:27:19;;;;;;;;;;;36.80;99.90;;;;;;5093677;28;19915;-71
2023/09/15 07:29:45;;;;;;;;;;;36.10;99.90;;;;;;5093940;28;19981;-72
2023/09/15 07:32:11;;;;;;;;;;;35.50;99.90;;;;;;5093141;28;19958;-73
2023/09/15 07:34:37;;;;;;;;;;;35.20;99.90;;;;;;5074845;28;19912;-72
2023/09/15 07:37:16;;;;;;;;;;;34.70;99.90;;;;;;5070106;28;20380;-71
2023/09/15 07:39:42;;;;;;;;;;;34.70;99.90;;;;;;5085003;28;20389;-72
2023/09/15 07:42:08;;;;;;;;;;;34.60;99.90;;;;;;5069553;28;20005;-72
2023/09/15 07:44:35;;;;;;;;;;;34.20;99.90;;;;;;5068406;28;20323;-72
2023/09/15 07:47:01;;;;;;;;;;;33.70;99.90;;;;;;5067645;28;19954;-72
2023/09/15 07:49:27;;;;;;;;;;;33.70;99.90;;;;;;5068658;28;19913;-71
2023/09/15 07:51:53;;;;;;;;;;;33.10;99.90;;;;;;5068520;28;19950;-71
2023/09/15 07:54:19;;;;;;;;;;;33.30;99.90;;;;;;5068750;28;19909;-72
2023/09/15 07:56:45;;;;;;;;;;;33.60;99.90;;;;;;5067080;28;19970;-72
2023/09/15 07:59:10;;;;;;;;;;;33.30;99.90;;;;;;5068493;28;19909;-72
2023/09/15 08:01:36;;;;;;;;;;;33.30;99.90;;;;;;5066389;28;20341;-72
2023/09/15 08:04:02;;;;;;;;;;;33.50;99.90;;;;;;5066197;28;20276;-72
2023/09/15 08:06:28;;;;;;;;;;;33.30;99.90;;;;;;5068135;28;19908;-73
2023/09/15 08:08:54;;;;;;;;;;;32.80;99.90;;;;;;5066608;28;20411;-72
2023/09/15 08:11:20;;;;;;;;;;;33.30;99.90;;;;;;5068172;28;20353;-71
2023/09/15 08:13:46;;;;;;;;;;;33.20;99.90;;;;;;5067890;28;20007;-71
2023/09/15 08:16:11;;;;;;;;;;;33.40;99.90;;;;;;5067875;28;20001;-71
2023/09/15 08:18:38;;;;;;;;;;;33.80;99.90;;;;;;5068696;28;19972;-71
2023/09/15 08:21:04;;;;;;;;;;;33.60;99.90;;;;;;5068767;28;20000;-74
2023/09/15 08:23:29;;;;;;;;;;;33.10;99.90;;;;;;5067561;28;19944;-70
2023/09/15 08:25:55;;;;;;;;;;;32.70;99.90;;;;;;5069351;28;19924;-75
2023/09/15 08:28:22;;;;;;;;;;;32.90;99.90;;;;;;5069180;28;19999;-72
2023/09/15 08:30:50;;;;;;;;;;;33.00;99.90;;;;;;5068504;28;19953;-72
2023/09/15 08:33:16;;;;;;;;;;;32.60;99.90;;;;;;5068179;28;19909;-71
2023/09/15 08:35:42;;;;;;;;;;;32.70;99.90;;;;;;5076124;28;19924;-71
2023/09/15 08:38:08;;;;;;;;;;;32.70;99.90;;;;;;5088576;28;20268;-72
2023/09/15 08:40:38;;;;;;;;;;;32.40;99.90;;;;;;5088609;28;19954;-72
2023/09/15 08:43:05;;;;;;;;;;;32.50;99.90;;;;;;5088186;28;20360;-71
2023/09/15 08:45:33;;;;;;;;;;;32.30;99.90;;;;;;5087876;28;19916;-71
2023/09/15 08:47:59;;;;;;;;;;;32.00;99.90;;;;;;5077070;28;19908;-72
2023/09/15 08:50:26;;;;;;;;;;;32.20;99.90;;;;;;5074615;28;19916;-73
2023/09/15 08:52:52;;;;;;;;;;;32.50;99.90;;;;;;5074310;28;19947;-71
2023/09/15 08:55:18;;;;;;;;;;;32.60;99.90;;;;;;5073860;28;19916;-72
2023/09/15 08:57:45;;;;;;;;;;;32.40;99.90;;;;;;5074415;28;19909;-71
2023/09/15 09:00:12;;;;;;;;;;;32.10;99.90;;;;;;5073525;28;19931;-71
2023/09/15 09:02:41;;;;;;;;;;;31.90;99.90;;;;;;5074258;28;19916;-72
2023/09/15 09:05:08;;;;;;;;;;;31.80;99.90;;;;;;5074245;28;19909;-71
2023/09/15 09:07:34;;;;;;;;;;;31.60;99.90;;;;;;5073589;28;19908;-71
2023/09/15 09:10:00;;;;;;;;;;;31.20;99.90;;;;;;5073822;28;19927;-72
2023/09/15 09:12:26;;;;;;;;;;;31.40;99.90;;;;;;5073954;28;20423;-71
2023/09/15 09:14:56;;;;;;;;;;;31.50;99.90;;;;;;5074242;28;19956;-71
2023/09/15 09:17:22;;;;;;;;;;;31.40;99.90;;;;;;5073876;28;19908;-71
2023/09/15 09:19:49;;;;;;;;;;;31.30;99.90;;;;;;5074246;28;20340;-72
2023/09/15 09:22:18;;;;;;;;;;;31.30;99.90;;;;;;5056124;28;19915;-70
2023/09/15 09:24:47;;;;;;;;;;;31.00;99.90;;;;;;5073844;28;19915;-73
2023/09/15 09:27:13;;;;;;;;;;;31.20;99.90;;;;;;5055609;28;20275;-72
2023/09/15 09:29:39;;;;;;;;;;;31.50;99.90;;;;;;5073966;28;20055;-71
2023/09/15 09:32:05;;;;;;;;;;;31.50;99.90;;;;;;5073955;28;19909;-71
2023/09/15 09:34:31;;;;;;;;;;;31.40;99.90;;;;;;5073501;28;19991;-72
2023/09/15 09:36:57;;;;;;;;;;;31.20;99.90;;;;;;5073288;28;20364;-71
2023/09/15 09:39:23;;;;;;;;;;;30.90;99.90;;;;;;5055790;28;19928;-71
2023/09/15 09:41:49;;;;;;;;;;;30.70;99.90;;;;;;5073849;28;19908;-71
2023/09/15 09:44:15;;;;;;;;;;;30.70;99.90;;;;;;5074114;28;20340;-73
2023/09/15 09:46:41;;;;;;;;;;;30.60;99.90;;;;;;5073970;28;19931;-71
2023/09/15 09:49:07;;;;;;;;;;;30.60;99.90;;;;;;5073401;28;19955;-69
2023/09/15 09:51:35;;;;;;;;;;;30.50;99.90;;;;;;5054981;28;19912;-71
2023/09/15 09:54:01;;;;;;;;;;;30.60;99.90;;;;;;5073199;28;20053;-71
2023/09/15 09:56:30;;;;;;;;;;;30.60;99.90;;;;;;5073193;28;19928;-71
2023/09/15 09:59:01;;;;;;;;;;;30.50;99.90;;;;;;5054144;28;19923;-71
2023/09/15 10:01:28;;;;;;;;;;;30.70;99.90;;;;;;5072829;28;20010;-71
2023/09/15 10:03:54;;;;;;;;;;;31.00;99.90;;;;;;5072267;28;19916;-72
2023/09/15 10:06:19;;;;;;;;;;;30.80;99.90;;;;;;5072828;28;20014;-71
2023/09/15 10:08:46;;;;;;;;;;;30.50;99.90;;;;;;5072544;28;19945;-71
2023/09/15 10:11:12;;;;;;;;;;;30.70;99.90;;;;;;5054725;28;20309;-71
2023/09/15 10:13:38;;;;;;;;;;;30.80;99.90;;;;;;5073033;28;19908;-71
2023/09/15 10:16:04;;;;;;;;;;;30.50;99.90;;;;;;5054787;28;19917;-71
2023/09/15 10:18:30;;;;;;;;;;;30.70;99.90;;;;;;5072702;28;19909;-71
2023/09/15 10:20:57;;;;;;;;;;;30.60;99.90;;;;;;5072341;28;20221;-71
2023/09/15 10:23:24;;;;;;;;;;;30.70;99.90;;;;;;5054400;28;19923;-71
2023/09/15 10:25:52;;;;;;;;;;;30.80;99.90;;;;;;5072721;28;20261;-71
2023/09/15 10:28:18;;;;;;;;;;;30.70;99.90;;;;;;5054570;28;19938;-71
2023/09/15 10:30:44;;;;;;;;;;;30.60;99.90;;;;;;5072841;28;19908;-70
2023/09/15 10:33:10;;;;;;;;;;;30.60;99.90;;;;;;5072351;28;19908;-71
2023/09/15 10:35:40;;;;;;;;;;;30.80;99.90;;;;;;5072469;28;19932;-70
2023/09/15 10:38:05;;;;;;;;;;;30.80;99.90;;;;;;5072852;28;19912;-71
2023/09/15 10:40:50;;;;;;;;;;;30.80;99.90;;;;;;5073004;28;20005;-72
2023/09/15 10:43:19;;;;;;;;;;;30.60;99.90;;;;;;5072870;28;20379;-71
2023/09/15 10:45:55;;;;;;;;;;;30.70;99.90;;;;;;5072626;28;19908;-73
2023/09/15 10:48:22;;;;;;;;;;;30.50;99.90;;;;;;5072699;28;19909;-71
2023/09/15 10:50:48;;;;;;;;;;;30.30;99.90;;;;;;5072658;28;19908;-71
2023/09/15 10:53:15;;;;;;;;;;;30.40;99.90;;;;;;5053861;28;19909;-71
2023/09/15 10:55:40;;;;;;;;;;;30.30;99.90;;;;;;5072158;28;19928;-71
2023/09/15 10:58:06;;;;;;;;;;;30.40;99.90;;;;;;5072722;28;19915;-71
2023/09/15 11:00:33;;;;;;;;;;;30.60;99.90;;;;;;5072609;28;19912;-71
2023/09/15 11:02:59;;;;;;;;;;;30.80;99.90;;;;;;5072481;28;19909;-72
2023/09/15 11:05:28;;;;;;;;;;;30.80;99.90;;;;;;5072601;28;19909;-71
2023/09/15 11:07:55;;;;;;;;;;;30.90;99.90;;;;;;5072434;28;20010;-71
2023/09/15 11:10:33;;;;;;;;;;;30.80;99.90;;;;;;5072173;28;19947;-72
2023/09/15 11:13:01;;;;;;;;;;;30.90;99.90;;;;;;5072370;28;19920;-71
2023/09/15 11:15:27;;;;;;;;;;;30.60;99.90;;;;;;5071964;28;19916;-69
2023/09/15 11:17:53;;;;;;;;;;;31.00;99.90;;;;;;5054396;28;20055;-71
2023/09/15 11:20:19;;;;;;;;;;;30.90;99.90;;;;;;5072853;28;19956;-70
2023/09/15 11:22:44;;;;;;;;;;;30.80;99.90;;;;;;5072750;28;19916;-71
2023/09/15 11:25:10;;;;;;;;;;;30.80;99.90;;;;;;5072836;28;19995;-71
2023/09/15 11:27:36;;;;;;;;;;;30.60;99.90;;;;;;5072429;28;19939;-71
2023/09/15 11:30:03;;;;;;;;;;;30.70;99.90;;;;;;5072771;28;20257;-72
2023/09/15 11:32:29;;;;;;;;;;;30.90;99.90;;;;;;5072193;28;20445;-71
2023/09/15 11:34:55;;;;;;;;;;;30.90;99.90;;;;;;5072687;28;20011;-71
2023/09/15 11:37:20;;;;;;;;;;;31.00;99.90;;;;;;5054519;28;19939;-71
2023/09/15 11:39:50;;;;;;;;;;;31.00;99.90;;;;;;5072549;28;20315;-70
2023/09/15 11:42:16;;;;;;;;;;;31.00;99.90;;;;;;5072775;28;19953;-70
2023/09/15 11:44:43;;;;;;;;;;;30.90;99.90;;;;;;5054405;28;20252;-70
2023/09/15 11:47:10;;;;;;;;;;;31.00;99.90;;;;;;5072470;28;19915;-71
2023/09/15 11:49:36;;;;;;;;;;;31.30;99.90;;;;;;5072497;28;19915;-71
2023/09/15 11:52:03;;;;;;;;;;;31.30;99.90;;;;;;5072204;28;19999;-71
2023/09/15 11:54:30;;;;;;;;;;;31.00;99.90;;;;;;5072415;28;19909;-71
2023/09/15 11:56:56;;;;;;;;;;;31.10;99.90;;;;;;5054023;28;19924;-70
2023/09/15 11:59:22;;;;;;;;;;;31.30;99.90;;;;;;5072438;28;19915;-71
2023/09/15 12:01:48;;;;;;;;;;;31.00;99.90;;;;;;5072112;28;20348;-70
2023/09/15 12:04:14;;;;;;;;;;;31.10;99.90;;;;;;5071807;28;19920;-72
2023/09/15 12:06:41;;;;;;;;;;;31.30;99.90;;;;;;5072404;28;19908;-70
2023/09/15 12:09:08;;;;;;;;;;;31.50;99.90;;;;;;5054240;28;19908;-71
2023/09/15 12:11:33;;;;;;;;;;;31.10;99.90;;;;;;5072895;28;20276;-71
2023/09/15 12:14:06;;;;;;;;;;;31.20;99.90;;;;;;5072759;28;20379;-71
2023/09/15 12:16:32;;;;;;;;;;;31.30;99.90;;;;;;5072879;28;19923;-71
2023/09/15 12:18:59;;;;;;;;;;;31.20;99.90;;;;;;5072501;28;20380;-70
2023/09/15 12:21:26;;;;;;;;;;;31.10;99.90;;;;;;5072607;28;19978;-72
2023/09/15 12:23:54;;;;;;;;;;;31.00;99.90;;;;;;5076114;28;19909;-71
2023/09/15 12:26:21;;;;;;;;;;;31.10;99.90;;;;;;5076642;28;20329;-71
2023/09/15 12:28:46;;;;;;;;;;;31.00;99.90;;;;;;5058329;28;19955;-72
2023/09/15 12:31:20;;;;;;;;;;;31.00;99.90;;;;;;5076420;28;19982;-71
2023/09/15 12:33:46;;;;;;;;;;;31.10;99.90;;;;;;5076192;28;19952;-72
2023/09/15 12:36:15;;;;;;;;;;;31.00;99.90;;;;;;5076020;28;19978;-72
2023/09/15 12:38:41;;;;;;;;;;;31.00;99.90;;;;;;5058048;28;19909;-71
2023/09/15 12:41:08;;;;;;;;;;;31.00;99.90;;;;;;5076315;28;19954;-72
2023/09/15 12:43:34;;;;;;;;;;;31.10;99.90;;;;;;5076545;28;19908;-71
2023/09/15 12:46:00;;;;;;;;;;;31.10;99.90;;;;;;5076059;28;19913;-71
2023/09/15 12:48:26;;;;;;;;;;;30.80;99.90;;;;;;5075920;28;19991;-70
2023/09/15 12:50:53;;;;;;;;;;;30.60;99.90;;;;;;5075785;28;19955;-71
2023/09/15 12:53:19;;;;;;;;;;;30.60;99.90;;;;;;5074892;28;20361;-72
2023/09/15 12:55:45;;;;;;;;;;;30.70;99.90;;;;;;5075389;28;19977;-71
2023/09/15 12:58:11;;;;;;;;;;;31.00;99.90;;;;;;5075307;28;20082;-70
2023/09/15 13:00:37;;;;;;;;;;;31.10;99.90;;;;;;5075516;28;19908;-72
2023/09/15 13:03:03;;;;;;;;;;;31.20;99.90;;;;;;5074814;28;19913;-70
2023/09/15 13:05:29;;;;;;;;;;;31.00;99.90;;;;;;5075410;28;19909;-72
2023/09/15 13:07:55;;;;;;;;;;;31.10;99.90;;;;;;5056856;28;19908;-72
2023/09/15 13:10:21;;;;;;;;;;;31.20;99.90;;;;;;5075192;28;19960;-71
2023/09/15 13:12:47;;;;;;;;;;;31.20;99.90;;;;;;5075043;28;19916;-70
2023/09/15 13:15:13;;;;;;;;;;;30.80;99.90;;;;;;5075060;28;19912;-71
2023/09/15 13:17:39;;;;;;;;;;;30.60;99.90;;;;;;5075297;28;19912;-70
2023/09/15 13:20:08;;;;;;;;;;;30.30;99.90;;;;;;5075525;28;19912;-71
2023/09/15 13:22:35;;;;;;;;;;;30.40;99.90;;;;;;5057231;28;19942;-70
2023/09/15 13:25:01;;;;;;;;;;;30.40;99.90;;;;;;5075310;28;20357;-70
2023/09/15 13:27:28;;;;;;;;;;;30.40;99.90;;;;;;5075588;28;20007;-71
2023/09/15 13:29:57;;;;;;;;;;;30.60;99.90;;;;;;5075070;28;19916;-71
2023/09/15 13:32:26;;;;;;;;;;;30.50;99.90;;;;;;5075789;28;19970;-70
2023/09/15 13:34:53;;;;;;;;;;;30.50;99.90;;;;;;5075365;28;19931;-72
2023/09/15 13:37:19;;;;;;;;;;;30.60;99.90;;;;;;5057180;28;20019;-72
2023/09/15 13:39:45;;;;;;;;;;;30.70;99.90;;;;;;5075142;28;19908;-71
2023/09/15 13:42:11;;;;;;;;;;;30.90;99.90;;;;;;5075523;28;19909;-71
2023/09/15 13:44:37;;;;;;;;;;;31.10;99.90;;;;;;5074952;28;19912;-72
2023/09/15 13:47:04;;;;;;;;;;;31.10;99.90;;;;;;5074646;28;20395;-70
2023/09/15 13:49:29;;;;;;;;;;;30.80;99.90;;;;;;5074857;28;19915;-70
2023/09/15 13:51:55;;;;;;;;;;;30.50;99.90;;;;;;5074503;28;19909;-70
2023/09/15 13:54:21;;;;;;;;;;;30.40;99.90;;;;;;5075242;28;19916;-71
2023/09/15 13:56:47;;;;;;;;;;;30.30;99.90;;;;;;5074481;28;19962;-70
2023/09/15 13:59:13;;;;;;;;;;;30.60;99.90;;;;;;5074868;28;19912;-70
2023/09/15 14:01:39;;;;;;;;;;;30.30;99.90;;;;;;5056581;28;19909;-70
2023/09/15 14:04:06;;;;;;;;;;;30.30;99.90;;;;;;5074328;28;19908;-71
2023/09/15 14:06:32;;;;;;;;;;;30.30;99.90;;;;;;5074618;28;19999;-71
2023/09/15 14:08:58;;;;;;;;;;;30.20;99.90;;;;;;5074634;28;20372;-71
2023/09/15 14:11:24;;;;;;;;;;;30.30;99.90;;;;;;5056287;28;19962;-71